Leni P. — A8XW5 — position and weather

sailwx.info

Track history (hours):
 
Tides and Currents Weather Stations Pressure Air Temp Water Temp Dewpoint Dewpoint Depression Visibility Wind Speed Wind Dir Waves Ship Positions

Leni P.

Last reported at 2016-Jun-01 02:33 UTC. Time now 2016-Jun-01 03:44 UTC.
Position N 40°47' E 028°55'.

Length 274 m; draft 8.7 m.

Type: Tanker. MMSI: 636014986.

Date/timePositionNaut miles runAvg speedWind from/ knotsBaromVisibWave heightAir tempDewpointWater temp
2016-Jun-01 02:33N 40°47' E 028°55'5 4.8
2016-Jun-01 01:33N 40°47' E 028°49'1312.1
2016-Jun-01 00:29N 40°39' E 028°36'7412.2
2016-May-31 18:27N 40°30' E 027°00'1112.5
2016-May-31 17:33N 40°26' E 026°46'1212.3
2016-May-31 16:33N 40°18' E 026°35'2311.5
2016-May-31 14:33N 40°01' E 026°13'6 5.7
2016-May-31 13:33N 40°00' E 026°06'10 9.8
2016-May-31 12:33N 39°55' E 025°56'10 9.6
2016-May-31 11:33N 39°45' E 025°53'2 1.8
2016-May-31 10:33N 39°45' E 025°50'10 9.5
2016-May-31 09:29N 39°37' E 025°42'11412.8
2016-May-31 00:33N 37°55' E 024°37'1211.6
2016-May-30 23:33N 37°47' E 024°26'1412.3
2016-May-30 22:27N 37°39' E 024°12'1111.9
2016-May-30 21:33N 37°33' E 024°01'1212.3
2016-May-30 20:33N 37°37' E 023°47'1212.0
2016-May-30 19:33N 37°47' E 023°38'7 6.7
2016-May-30 18:33N 37°51' E 023°32'0 0.1
2016-May-30 17:33N 37°51' E 023°31'0 0.0
2016-May-30 16:33N 37°51' E 023°31'0 0.0
2016-May-30 14:33N 37°51' E 023°31'0 0.0
2016-May-30 13:33N 37°51' E 023°31'0 0.0
2016-May-30 12:33N 37°51' E 023°31'0 0.0
2016-May-30 11:33N 37°51' E 023°31'0 0.0
2016-May-30 10:33N 37°51' E 023°31'0 0.0
2016-May-30 09:33N 37°51' E 023°31'0 0.0
2016-May-30 08:33N 37°51' E 023°31'0 0.0
2016-May-30 07:33N 37°51' E 023°31'0 0.0
2016-May-30 06:33N 37°51' E 023°31'0 0.0
2016-May-30 05:33N 37°51' E 023°31'0 0.0
2016-May-30 04:30N 37°51' E 023°31'0 0.0
2016-May-30 03:33N 37°51' E 023°31'0 0.0
2016-May-30 02:33N 37°51' E 023°31'0 0.0
2016-May-30 01:33N 37°51' E 023°31'0 0.0
2016-May-30 00:33N 37°51' E 023°31'0 0.0
2016-May-29 23:33N 37°51' E 023°31'1 0.8
2016-May-29 22:33N 37°51' E 023°31'8 7.9
2016-May-29 21:33N 37°51' E 023°21'1211.8
2016-May-29 20:33N 37°54' E 023°06'1 0.2
2016-May-29 14:24N 37°55' E 023°05'0 0.0
2016-May-29 13:18N 37°55' E 023°05'0 0.0
2016-May-29 12:33N 37°55' E 023°05'0 0.0
2016-May-29 11:33N 37°55' E 023°05'0 0.0
2016-May-28 07:33N 37°55' E 023°05'1 1.0
2016-May-28 06:31N 37°54' E 023°06'0 0.0
2016-May-28 04:31N 37°54' E 023°06'0 0.1
2016-May-28 03:31N 37°54' E 023°06'0 0.1
2016-May-28 02:22N 37°54' E 023°07'0 0.1
2016-May-28 01:22N 37°54' E 023°06'0 0.0
2016-May-28 00:31N 37°54' E 023°06'0 0.0
2016-May-27 23:31N 37°54' E 023°06'0 0.0
2016-May-27 22:31N 37°54' E 023°06'0 0.1
2016-May-27 21:31N 37°54' E 023°06'0 0.1
2016-May-27 20:31N 37°54' E 023°06'0 0.0
2016-May-27 19:31N 37°54' E 023°06'0 0.0
2016-May-27 18:31N 37°54' E 023°06'0 0.0
2016-May-27 17:31N 37°54' E 023°06'0 0.0
2016-May-27 16:31N 37°54' E 023°06'0 0.0
2016-May-27 15:31N 37°54' E 023°06'0 0.1
2016-May-27 14:31N 37°54' E 023°06'0 0.1
2016-May-27 13:28N 37°54' E 023°07'0 0.0
2016-May-27 12:31N 37°54' E 023°07'0 0.0
2016-May-27 10:31N 37°54' E 023°07'0 0.0
2016-May-27 09:25N 37°54' E 023°07'0 0.0
2016-May-27 07:10N 37°54' E 023°07'0 0.1
2016-May-27 06:31N 37°54' E 023°07'0 0.0
2016-May-27 05:31N 37°54' E 023°07'2 2.6
2016-May-27 04:33N 37°54' E 023°10'4 3.7
2016-May-27 03:33N 37°54' E 023°14'0 0.2
2016-May-27 02:33N 37°54' E 023°14'0 0.3
2016-May-27 01:33N 37°54' E 023°14'0 0.3
2016-May-27 00:33N 37°54' E 023°13'2 2.0
2016-May-26 23:33N 37°52' E 023°15'1110.6
2016-May-26 22:33N 37°50' E 023°28'1111.0
2016-May-26 21:33N 37°47' E 023°41'1312.6
2016-May-26 20:33N 37°35' E 023°46'1211.8
2016-May-26 19:33N 37°23' E 023°46'1212.0
2016-May-26 18:33N 37°11' E 023°47'1212.1
2016-May-26 17:33N 36°59' E 023°48'1211.5
2016-May-26 16:33N 36°47' E 023°50'1211.8
2016-May-26 15:33N 36°37' E 023°57'1511.1
2016-May-26 14:14N 36°27' E 024°10'39111.9
2016-May-25 05:18N 32°40' E 030°38'911.6
2016-May-25 04:33N 32°35' E 030°46'  
Track history (hours):
 
Tides and Currents Weather Stations Pressure Air Temp Water Temp Dewpoint Dewpoint Depression Visibility Wind Speed Wind Dir Waves Ship Positions

Leni P.

Last reported at 2016-Jun-01 02:33 UTC. Time now 2016-Jun-01 03:44 UTC.
Position N 40°47' E 028°55'.

Length 274 m; draft 8.7 m.

Type: Tanker. MMSI: 636014986.

Date/timePositionNaut miles runAvg speedWind from/ knotsBaromVisibWave heightAir tempDewpointWater temp
2016-Jun-01 02:33N 40°47' E 028°55'5 4.8
2016-Jun-01 01:33N 40°47' E 028°49'1312.1
2016-Jun-01 00:29N 40°39' E 028°36'7412.2
2016-May-31 18:27N 40°30' E 027°00'1112.5
2016-May-31 17:33N 40°26' E 026°46'1212.3
2016-May-31 16:33N 40°18' E 026°35'2311.5
2016-May-31 14:33N 40°01' E 026°13'6 5.7
2016-May-31 13:33N 40°00' E 026°06'10 9.8
2016-May-31 12:33N 39°55' E 025°56'10 9.6
2016-May-31 11:33N 39°45' E 025°53'2 1.8
2016-May-31 10:33N 39°45' E 025°50'10 9.5
2016-May-31 09:29N 39°37' E 025°42'11412.8
2016-May-31 00:33N 37°55' E 024°37'1211.6
2016-May-30 23:33N 37°47' E 024°26'1412.3
2016-May-30 22:27N 37°39' E 024°12'1111.9
2016-May-30 21:33N 37°33' E 024°01'1212.3
2016-May-30 20:33N 37°37' E 023°47'1212.0
2016-May-30 19:33N 37°47' E 023°38'7 6.7
2016-May-30 18:33N 37°51' E 023°32'0 0.1
2016-May-30 17:33N 37°51' E 023°31'0 0.0
2016-May-30 16:33N 37°51' E 023°31'0 0.0
2016-May-30 14:33N 37°51' E 023°31'0 0.0
2016-May-30 13:33N 37°51' E 023°31'0 0.0
2016-May-30 12:33N 37°51' E 023°31'0 0.0
2016-May-30 11:33N 37°51' E 023°31'0 0.0
2016-May-30 10:33N 37°51' E 023°31'0 0.0
2016-May-30 09:33N 37°51' E 023°31'0 0.0
2016-May-30 08:33N 37°51' E 023°31'0 0.0
2016-May-30 07:33N 37°51' E 023°31'0 0.0
2016-May-30 06:33N 37°51' E 023°31'0 0.0
2016-May-30 05:33N 37°51' E 023°31'0 0.0
2016-May-30 04:30N 37°51' E 023°31'0 0.0
2016-May-30 03:33N 37°51' E 023°31'0 0.0
2016-May-30 02:33N 37°51' E 023°31'0 0.0
2016-May-30 01:33N 37°51' E 023°31'0 0.0
2016-May-30 00:33N 37°51' E 023°31'0 0.0
2016-May-29 23:33N 37°51' E 023°31'1 0.8
2016-May-29 22:33N 37°51' E 023°31'8 7.9
2016-May-29 21:33N 37°51' E 023°21'1211.8
2016-May-29 20:33N 37°54' E 023°06'1 0.2
2016-May-29 14:24N 37°55' E 023°05'0 0.0
2016-May-29 13:18N 37°55' E 023°05'0 0.0
2016-May-29 12:33N 37°55' E 023°05'0 0.0
2016-May-29 11:33N 37°55' E 023°05'0 0.0
2016-May-28 07:33N 37°55' E 023°05'1 1.0
2016-May-28 06:31N 37°54' E 023°06'0 0.0
2016-May-28 04:31N 37°54' E 023°06'0 0.1
2016-May-28 03:31N 37°54' E 023°06'0 0.1
2016-May-28 02:22N 37°54' E 023°07'0 0.1
2016-May-28 01:22N 37°54' E 023°06'0 0.0
2016-May-28 00:31N 37°54' E 023°06'0 0.0
2016-May-27 23:31N 37°54' E 023°06'0 0.0
2016-May-27 22:31N 37°54' E 023°06'0 0.1
2016-May-27 21:31N 37°54' E 023°06'0 0.1
2016-May-27 20:31N 37°54' E 023°06'0 0.0
2016-May-27 19:31N 37°54' E 023°06'0 0.0
2016-May-27 18:31N 37°54' E 023°06'0 0.0
2016-May-27 17:31N 37°54' E 023°06'0 0.0
2016-May-27 16:31N 37°54' E 023°06'0 0.0
2016-May-27 15:31N 37°54' E 023°06'0 0.1
2016-May-27 14:31N 37°54' E 023°06'0 0.1
2016-May-27 13:28N 37°54' E 023°07'0 0.0
2016-May-27 12:31N 37°54' E 023°07'0 0.0
2016-May-27 10:31N 37°54' E 023°07'0 0.0
2016-May-27 09:25N 37°54' E 023°07'0 0.0
2016-May-27 07:10N 37°54' E 023°07'0 0.1
2016-May-27 06:31N 37°54' E 023°07'0 0.0
2016-May-27 05:31N 37°54' E 023°07'2 2.6
2016-May-27 04:33N 37°54' E 023°10'4 3.7
2016-May-27 03:33N 37°54' E 023°14'0 0.2
2016-May-27 02:33N 37°54' E 023°14'0 0.3
2016-May-27 01:33N 37°54' E 023°14'0 0.3
2016-May-27 00:33N 37°54' E 023°13'2 2.0
2016-May-26 23:33N 37°52' E 023°15'1110.6
2016-May-26 22:33N 37°50' E 023°28'1111.0
2016-May-26 21:33N 37°47' E 023°41'1312.6
2016-May-26 20:33N 37°35' E 023°46'1211.8
2016-May-26 19:33N 37°23' E 023°46'1212.0
2016-May-26 18:33N 37°11' E 023°47'1212.1
2016-May-26 17:33N 36°59' E 023°48'1211.5
2016-May-26 16:33N 36°47' E 023°50'1211.8
2016-May-26 15:33N 36°37' E 023°57'1511.1
2016-May-26 14:14N 36°27' E 024°10'39111.9
2016-May-25 05:18N 32°40' E 030°38'911.6
2016-May-25 04:33N 32°35' E 030°46'  

Dump ship's entire track history